Wetterdaten: Woche 29.10.18 - 04.11.18 (KW44)
Datum Zeit Temp. Aussen Temp. o. S. +5cm Feuchte Auss Luftdruck Regen Sonnenschein Regendauer Solar Windben Empfang
29.10.2018 00:00 5,1 C 4,6 C 4,4 C 86 % 1009,6 hPa 0,0 l/m 0,00 h 0,00 h 0 W/m 17,2 km/h (3 Bft) 95,12 %
29.10.2018 01:00 5,2 C 4,6 C 4,4 C 85 % 1009,3 hPa 0,0 l/m 0,00 h 0,00 h 0 W/m 16,9 km/h (3 Bft) 96,53 %
29.10.2018 02:00 5,2 C 4,4 C 4,4 C 86 % 1009,0 hPa 0,0 l/m 0,00 h 0,00 h 0 W/m 12,4 km/h (3 Bft) 97,04 %
29.10.2018 03:00 5,0 C 4,4 C 4,3 C 87 % 1007,9 hPa 0,0 l/m 0,00 h 0,00 h 0 W/m 16,3 km/h (3 Bft) 97,72 %
29.10.2018 04:00 4,8 C 4,4 C 3,9 C 87 % 1007,7 hPa 0,0 l/m 0,00 h 0,00 h 0 W/m 14,5 km/h (3 Bft) 97,43 %
29.10.2018 05:00 4,8 C 4,4 C 4,1 C 88 % 1007,1 hPa 0,0 l/m 0,00 h 0,00 h 0 W/m 14,0 km/h (3 Bft) 98,91 %
29.10.2018 06:00 4,8 C 4,4 C 3,9 C 89 % 1006,1 hPa 0,0 l/m 0,00 h 0,00 h 0 W/m 15,9 km/h (3 Bft) 96,03 %
29.10.2018 07:00 4,8 C 4,4 C 4,3 C 89 % 1005,8 hPa 0,0 l/m 0,00 h 0,00 h 8 W/m 14,5 km/h (3 Bft) 97,14 %
29.10.2018 08:00 4,9 C 4,6 C 4,4 C 89 % 1005,3 hPa 0,0 l/m 0,00 h 0,00 h 24 W/m 15,1 km/h (3 Bft) 97,87 %
29.10.2018 09:00 5,4 C 5,5 C 4,9 C 89 % 1004,4 hPa 0,0 l/m 0,00 h 0,00 h 73 W/m 13,0 km/h (3 Bft) 97,96 %
29.10.2018 10:00 5,8 C 5,7 C 5,1 C 88 % 1003,1 hPa 0,0 l/m 0,00 h 0,00 h 67 W/m 10,8 km/h (2 Bft) 96,34 %
29.10.2018 11:00 6,3 C 6,2 C 5,6 C 86 % 1002,2 hPa 0,0 l/m 0,00 h 0,00 h 98 W/m 15,0 km/h (3 Bft) 97,54 %
29.10.2018 12:00 6,4 C 6,1 C 5,6 C 85 % 1001,8 hPa 0,0 l/m 0,00 h 0,00 h 39 W/m 13,0 km/h (3 Bft) 98,33 %
29.10.2018 13:00 6,4 C 6,1 C 5,6 C 85 % 1001,0 hPa 0,0 l/m 0,00 h 0,00 h 57 W/m 10,9 km/h (2 Bft) 96,45 %
29.10.2018 14:00 6,4 C 6,1 C 5,6 C 84 % 1000,0 hPa 0,0 l/m 0,00 h 0,00 h 52 W/m 12,9 km/h (3 Bft) 97,86 %
29.10.2018 15:00 6,3 C 5,7 C 5,6 C 84 % 998,7 hPa 0,0 l/m 0,00 h 0,00 h 28 W/m 14,8 km/h (3 Bft) 97,94 %
29.10.2018 16:00 6,0 C 5,6 C 5,0 C 84 % 997,3 hPa 0,0 l/m 0,00 h 0,00 h 15 W/m 16,3 km/h (3 Bft) 97,47 %
29.10.2018 17:00 5,8 C 5,2 C 5,0 C 86 % 996,1 hPa 0,0 l/m 0,00 h 0,00 h 6 W/m 17,0 km/h (3 Bft) 97,06 %
29.10.2018 18:00 5,5 C 5,0 C 4,7 C 87 % 995,4 hPa 0,0 l/m 0,00 h 0,00 h 0 W/m 19,9 km/h (4 Bft) 97,09 %
29.10.2018 19:00 5,3 C 5,0 C 4,4 C 89 % 994,5 hPa 0,0 l/m 0,00 h 0,00 h 0 W/m 16,6 km/h (3 Bft) 98,06 %
29.10.2018 20:00 5,3 C 5,0 C 4,5 C 88 % 993,2 hPa 0,0 l/m 0,00 h 0,00 h 0 W/m 15,8 km/h (3 Bft) 97,42 %
29.10.2018 21:00 5,3 C 5,0 C 4,4 C 88 % 992,5 hPa 0,0 l/m 0,00 h 0,00 h 0 W/m 14,6 km/h (3 Bft) 95,03 %
29.10.2018 22:00 5,2 C 4,4 C 4,4 C 89 % 990,7 hPa 0,0 l/m 0,00 h 0,00 h 0 W/m 18,2 km/h (3 Bft) 99,16 %
29.10.2018 23:00 4,9 C 4,3 C 3,9 C 91 % 989,0 hPa 0,0 l/m 0,00 h 0,27 h 0 W/m 22,8 km/h (4 Bft) 97,54 %
30.10.2018 00:00 4,7 C 3,9 C 3,3 C 93 % 987,6 hPa 0,2 l/m 0,00 h 0,57 h 0 W/m 18,3 km/h (3 Bft) 96,78 %
30.10.2018 01:00 4,6 C 3,9 C 3,3 C 94 % 986,1 hPa 0,6 l/m 0,00 h 0,67 h 0 W/m 16,2 km/h (3 Bft) 98,31 %
30.10.2018 02:00 4,5 C 3,9 C 3,3 C 95 % 985,1 hPa 3,6 l/m 0,00 h 0,97 h 0 W/m 11,0 km/h (2 Bft) 96,33 %
30.10.2018 03:00 4,5 C 3,9 C 3,4 C 96 % 984,7 hPa 5,2 l/m 0,00 h 0,83 h 0 W/m 5,5 km/h (1 Bft) 99,16 %
30.10.2018 04:00 4,4 C 3,9 C 3,7 C 96 % 983,6 hPa 0,0 l/m 0,00 h 0,00 h 0 W/m 5,0 km/h (1 Bft) 97,37 %
30.10.2018 05:00 4,5 C 3,9 C 3,9 C 97 % 983,6 hPa 0,0 l/m 0,00 h 0,00 h 0 W/m 4,3 km/h (1 Bft) 96,06 %
30.10.2018 06:00 4,7 C 4,3 C 4,3 C 97 % 983,9 hPa 0,0 l/m 0,00 h 0,00 h 0 W/m 3,2 km/h (1 Bft) 98,98 %
30.10.2018 07:00 5,1 C 4,6 C 4,4 C 97 % 984,2 hPa 0,0 l/m 0,00 h 0,00 h 7 W/m 4,9 km/h (1 Bft) 96,54 %
30.10.2018 08:00 5,6 C 5,2 C 4,8 C 98 % 984,9 hPa 0,0 l/m 0,00 h 0,00 h 36 W/m 8,4 km/h (2 Bft) 96,53 %
30.10.2018 09:00 6,2 C 5,9 C 5,4 C 98 % 985,7 hPa 0,0 l/m 0,00 h 0,33 h 63 W/m 7,2 km/h (2 Bft) 99,16 %
30.10.2018 10:00 6,9 C 6,7 C 6,0 C 98 % 986,2 hPa 0,0 l/m 0,10 h 0,17 h 132 W/m 10,5 km/h (2 Bft) 95,69 %
30.10.2018 11:00 7,1 C 6,5 C 6,3 C 98 % 986,8 hPa 0,0 l/m 0,00 h 0,03 h 68 W/m 16,0 km/h (3 Bft) 93,01 %
30.10.2018 12:00 6,8 C 5,7 C 6,1 C 89 % 987,3 hPa 0,0 l/m 0,00 h 0,00 h 66 W/m 17,4 km/h (3 Bft) 95,23 %
30.10.2018 13:00 7,0 C 6,5 C 6,2 C 80 % 987,7 hPa 0,0 l/m 0,13 h 0,00 h 118 W/m 20,8 km/h (4 Bft) 96,92 %
30.10.2018 14:00 6,2 C 5,6 C 5,1 C 80 % 987,7 hPa 0,0 l/m 0,00 h 0,03 h 41 W/m 19,3 km/h (3 Bft) 97,87 %
30.10.2018 15:00 5,2 C 3,8 C 3,9 C 85 % 987,9 hPa 0,4 l/m 0,00 h 0,73 h 24 W/m 17,8 km/h (3 Bft) 95,93 %
30.10.2018 16:00 4,2 C 3,0 C 3,0 C 91 % 988,5 hPa 1,8 l/m 0,00 h 1,00 h 9 W/m 10,7 km/h (2 Bft) 98,78 %
30.10.2018 17:00 5,1 C 4,8 C 4,5 C 95 % 989,0 hPa 1,6 l/m 0,00 h 1,00 h 0 W/m 15,4 km/h (3 Bft) 99,31 %
30.10.2018 18:00 7,5 C 6,7 C 6,1 C 97 % 991,1 hPa 0,6 l/m 0,00 h 1,00 h 0 W/m 27,6 km/h (4 Bft) 93,42 %
30.10.2018 19:00 7,9 C 6,9 C 6,5 C 97 % 993,5 hPa 0,8 l/m 0,00 h 1,00 h 0 W/m 24,9 km/h (4 Bft) 98,63 %
30.10.2018 20:00 8,1 C 7,2 C 6,7 C 96 % 995,8 hPa 0,2 l/m 0,00 h 1,00 h 0 W/m 24,7 km/h (4 Bft) 98,17 %
30.10.2018 21:00 8,3 C 7,2 C 6,9 C 95 % 998,3 hPa 0,0 l/m 0,00 h 0,70 h 0 W/m 24,8 km/h (4 Bft) 94,85 %
30.10.2018 22:00 8,3 C 7,1 C 6,8 C 93 % 1000,4 hPa 0,4 l/m 0,00 h 0,97 h 0 W/m 19,0 km/h (3 Bft) 97,71 %
30.10.2018 23:00 8,1 C 6,8 C 6,9 C 93 % 1002,2 hPa 0,0 l/m 0,00 h 0,00 h 0 W/m 20,6 km/h (4 Bft) 96,07 %
31.10.2018 00:00 8,1 C 6,9 C 7,0 C 90 % 1003,7 hPa 0,0 l/m 0,00 h 0,00 h 0 W/m 20,3 km/h (4 Bft) 97,85 %
31.10.2018 01:00 7,6 C 7,0 C 6,7 C 88 % 1005,2 hPa 0,0 l/m 0,00 h 0,00 h 0 W/m 14,1 km/h (3 Bft) 97,46 %
31.10.2018 02:00 7,1 C 6,4 C 6,0 C 87 % 1006,4 hPa 0,0 l/m 0,00 h 0,00 h 0 W/m 13,7 km/h (3 Bft) 95,87 %
31.10.2018 03:00 6,3 C 5,5 C 5,3 C 88 % 1007,3 hPa 0,0 l/m 0,00 h 0,00 h 0 W/m 12,2 km/h (3 Bft) 98,93 %
31.10.2018 04:00 5,6 C 4,6 C 4,5 C 89 % 1008,0 hPa 0,0 l/m 0,00 h 0,00 h 0 W/m 8,4 km/h (2 Bft) 98,11 %
31.10.2018 05:00 5,1 C 4,4 C 4,4 C 91 % 1009,0 hPa 0,0 l/m 0,00 h 0,00 h 0 W/m 8,1 km/h (2 Bft) 95,31 %
31.10.2018 06:00 4,8 C 4,2 C 4,1 C 91 % 1009,6 hPa 0,0 l/m 0,00 h 0,00 h 0 W/m 6,3 km/h (2 Bft) 98,83 %
31.10.2018 07:00 4,3 C 3,6 C 3,5 C 92 % 1010,2 hPa 0,0 l/m 0,00 h 0,00 h 11 W/m 5,4 km/h (1 Bft) 96,81 %
31.10.2018 08:00 4,3 C 4,3 C 3,9 C 93 % 1011,4 hPa 0,0 l/m 0,00 h 0,00 h 46 W/m 10,9 km/h (2 Bft) 98,39 %
31.10.2018 09:00 5,2 C 5,9 C 4,7 C 94 % 1012,2 hPa 0,0 l/m 0,00 h 0,00 h 67 W/m 14,5 km/h (3 Bft) 97,24 %
31.10.2018 10:00 6,5 C 9,6 C 5,6 C 93 % 1012,5 hPa 0,0 l/m 0,00 h 0,00 h 108 W/m 16,2 km/h (3 Bft) 96,10 %
31.10.2018 11:00 8,1 C 10,2 C 6,6 C 88 % 1012,6 hPa 0,0 l/m 0,20 h 0,00 h 148 W/m 15,1 km/h (3 Bft) 96,23 %
31.10.2018 12:00 9,1 C 10,0 C 7,5 C 84 % 1012,1 hPa 0,0 l/m 0,40 h 0,00 h 189 W/m 10,6 km/h (2 Bft) 97,86 %
31.10.2018 13:00 10,5 C 10,8 C 8,7 C 79 % 1011,9 hPa 0,0 l/m 0,20 h 0,00 h 166 W/m 15,1 km/h (3 Bft) 97,52 %
31.10.2018 14:00 9,9 C 9,0 C 7,9 C 79 % 1011,8 hPa 0,0 l/m 0,00 h 0,00 h 39 W/m 11,5 km/h (2 Bft) 95,54 %
31.10.2018 15:00 9,5 C 9,2 C 7,8 C 82 % 1011,5 hPa 0,0 l/m 0,00 h 0,00 h 36 W/m 10,7 km/h (2 Bft) 99,35 %
31.10.2018 16:00 9,8 C 9,4 C 7,9 C 82 % 1011,5 hPa 0,0 l/m 0,00 h 0,07 h 18 W/m 10,8 km/h (2 Bft) 97,71 %
31.10.2018 17:00 9,9 C 9,2 C 7,9 C 83 % 1011,4 hPa 0,0 l/m 0,00 h 0,27 h 4 W/m 12,0 km/h (2 Bft) 95,16 %
31.10.2018 18:00 9,6 C 7,4 C 7,2 C 86 % 1011,4 hPa 0,2 l/m 0,00 h 0,93 h 0 W/m 12,2 km/h (2 Bft) 99,58 %
31.10.2018 19:00 9,1 C 7,8 C 7,2 C 87 % 1011,1 hPa 0,0 l/m 0,00 h 0,00 h 0 W/m 15,5 km/h (3 Bft) 97,36 %
31.10.2018 20:00 9,3 C 8,6 C 7,2 C 85 % 1011,0 hPa 0,0 l/m 0,00 h 0,23 h 0 W/m 13,6 km/h (3 Bft) 97,66 %
31.10.2018 21:00 9,6 C 9,2 C 7,8 C 85 % 1011,0 hPa 0,0 l/m 0,00 h 0,17 h 0 W/m 11,6 km/h (2 Bft) 97,61 %
31.10.2018 22:00 9,8 C 8,8 C 7,6 C 83 % 1010,7 hPa 0,0 l/m 0,00 h 0,20 h 0 W/m 9,7 km/h (2 Bft) 95,63 %
31.10.2018 23:00 9,1 C 7,0 C 6,8 C 85 % 1010,1 hPa 0,2 l/m 0,00 h 0,00 h 0 W/m 2,3 km/h (1 Bft) 99,33 %
01.11.2018 00:00 8,1 C 6,9 C 6,2 C 87 % 1009,9 hPa 0,0 l/m 0,00 h 0,00 h 0 W/m 0,8 km/h (0 Bft) 97,28 %
01.11.2018 01:00 7,6 C 6,9 C 6,3 C 89 % 1009,4 hPa 0,0 l/m 0,00 h 0,00 h 0 W/m 2,9 km/h (1 Bft) 95,73 %
01.11.2018 02:00 7,8 C 7,8 C 7,0 C 90 % 1009,4 hPa 0,0 l/m 0,00 h 0,00 h 0 W/m 8,6 km/h (2 Bft) 99,16 %
01.11.2018 03:00 8,4 C 8,2 C 7,2 C 87 % 1009,2 hPa 0,0 l/m 0,00 h 0,00 h 0 W/m 9,2 km/h (2 Bft) 97,14 %
01.11.2018 04:00 8,4 C 7,8 C 6,8 C 83 % 1008,7 hPa 0,0 l/m 0,00 h 0,00 h 0 W/m 13,3 km/h (3 Bft) 96,19 %
01.11.2018 05:00 8,0 C 7,2 C 6,7 C 84 % 1008,5 hPa 0,0 l/m 0,00 h 0,00 h 0 W/m 10,9 km/h (2 Bft) 98,13 %
01.11.2018 06:00 7,7 C 7,1 C 6,7 C 85 % 1008,2 hPa 0,0 l/m 0,00 h 0,00 h 0 W/m 11,1 km/h (2 Bft) 97,06 %
01.11.2018 07:00 7,5 C 6,9 C 6,2 C 85 % 1008,5 hPa 0,0 l/m 0,00 h 0,00 h 8 W/m 13,2 km/h (3 Bft) 98,09 %
01.11.2018 08:00 7,7 C 7,7 C 6,9 C 86 % 1008,9 hPa 0,0 l/m 0,00 h 0,00 h 43 W/m 12,1 km/h (2 Bft) 96,84 %
01.11.2018 09:00 8,4 C 8,9 C 7,3 C 85 % 1008,1 hPa 0,0 l/m 0,00 h 0,00 h 96 W/m 10,0 km/h (2 Bft) 96,76 %
01.11.2018 10:00 9,4 C 9,9 C 8,2 C 84 % 1008,2 hPa 0,0 l/m 0,00 h 0,00 h 120 W/m 10,9 km/h (2 Bft) 98,82 %
01.11.2018 11:00 10,0 C 10,0 C 8,6 C 82 % 1008,1 hPa 0,0 l/m 0,00 h 0,00 h 108 W/m 11,8 km/h (2 Bft) 95,53 %
01.11.2018 12:00 10,2 C 10,0 C 8,9 C 81 % 1007,8 hPa 0,0 l/m 0,00 h 0,00 h 104 W/m 11,8 km/h (2 Bft) 97,71 %
01.11.2018 13:00 10,2 C 10,0 C 8,9 C 83 % 1007,6 hPa 0,0 l/m 0,00 h 0,00 h 81 W/m 10,9 km/h (2 Bft) 98,44 %
01.11.2018 14:00 10,3 C 9,4 C 8,5 C 83 % 1007,7 hPa 0,0 l/m 0,00 h 0,53 h 46 W/m 9,6 km/h (2 Bft) 95,23 %
01.11.2018 15:00 9,7 C 7,9 C 7,6 C 88 % 1008,0 hPa 1,0 l/m 0,00 h 1,00 h 18 W/m 8,7 km/h (2 Bft) 90,39 %
01.11.2018 16:00 9,0 C 7,6 C 7,2 C 92 % 1007,9 hPa 1,2 l/m 0,00 h 1,00 h 8 W/m 9,0 km/h (2 Bft) 95,38 %
01.11.2018 17:00 8,7 C 7,8 C 7,2 C 94 % 1007,5 hPa 0,6 l/m 0,00 h 1,00 h 0 W/m 7,6 km/h (2 Bft) 95,01 %
01.11.2018 18:00 8,7 C 7,8 C 7,2 C 96 % 1007,8 hPa 0,2 l/m 0,00 h 0,33 h 0 W/m 6,8 km/h (2 Bft) 97,68 %
01.11.2018 19:00 8,6 C 7,8 C 7,2 C 96 % 1008,0 hPa 0,0 l/m 0,00 h 0,00 h 0 W/m 10,6 km/h (2 Bft) 97,86 %
01.11.2018 20:00 8,7 C 7,8 C 7,6 C 97 % 1008,3 hPa 0,0 l/m 0,00 h 0,00 h 0 W/m 11,5 km/h (2 Bft) 97,06 %
01.11.2018 21:00 8,7 C 7,8 C 7,2 C 97 % 1008,6 hPa 0,0 l/m 0,00 h 0,00 h 0 W/m 11,4 km/h (2 Bft) 97,10 %
01.11.2018 22:00 8,6 C 7,8 C 7,3 C 97 % 1008,9 hPa 0,0 l/m 0,00 h 0,00 h 0 W/m 9,9 km/h (2 Bft) 96,94 %
01.11.2018 23:00 8,9 C 8,3 C 7,8 C 97 % 1009,4 hPa 0,0 l/m 0,00 h 0,00 h 0 W/m 5,3 km/h (1 Bft) 98,13 %
02.11.2018 00:00 9,2 C 8,6 C 7,8 C 98 % 1009,9 hPa 0,0 l/m 0,00 h 0,00 h 0 W/m 6,8 km/h (2 Bft) 97,52 %
02.11.2018 01:00 9,3 C 9,0 C 7,9 C 97 % 1010,4 hPa 0,0 l/m 0,00 h 0,00 h 0 W/m 7,5 km/h (2 Bft) 96,41 %
02.11.2018 02:00 9,5 C 9,6 C 8,2 C 97 % 1011,2 hPa 0,0 l/m 0,00 h 0,00 h 0 W/m 11,1 km/h (2 Bft) 98,86 %
02.11.2018 03:00 10,0 C 9,7 C 8,4 C 93 % 1012,1 hPa 0,0 l/m 0,00 h 0,00 h 0 W/m 14,2 km/h (3 Bft) 97,33 %
02.11.2018 04:00 9,7 C 9,0 C 8,3 C 90 % 1013,0 hPa 0,0 l/m 0,00 h 0,00 h 0 W/m 13,6 km/h (3 Bft) 95,92 %
02.11.2018 05:00 9,4 C 8,6 C 8,2 C 90 % 1014,1 hPa 0,0 l/m 0,00 h 0,23 h 0 W/m 14,6 km/h (3 Bft) 99,29 %
02.11.2018 06:00 9,1 C 8,2 C 7,8 C 90 % 1015,4 hPa 0,0 l/m 0,00 h 0,03 h 0 W/m 8,7 km/h (2 Bft) 97,29 %
02.11.2018 07:00 8,8 C 8,1 C 7,8 C 91 % 1016,6 hPa 0,0 l/m 0,00 h 0,00 h 11 W/m 8,6 km/h (2 Bft) 96,10 %
02.11.2018 08:00 8,4 C 8,0 C 7,4 C 92 % 1017,9 hPa 0,0 l/m 0,03 h 0,00 h 42 W/m 10,0 km/h (2 Bft) 97,83 %
02.11.2018 09:00 8,5 C 8,7 C 7,8 C 92 % 1018,6 hPa 0,0 l/m 0,00 h 0,00 h 83 W/m 9,0 km/h (2 Bft) 97,85 %
02.11.2018 10:00 9,6 C 11,0 C 9,1 C 88 % 1019,4 hPa 0,6 l/m 0,50 h 0,00 h 217 W/m 6,6 km/h (2 Bft) 96,46 %
02.11.2018 11:00 10,8 C 16,8 C 10,0 C 82 % 1020,2 hPa 0,2 l/m 1,00 h 0,00 h 439 W/m 9,7 km/h (2 Bft) 96,34 %
02.11.2018 12:00 12,1 C 17,3 C 12,6 C 75 % 1020,6 hPa 0,0 l/m 0,70 h 0,00 h 336 W/m 9,9 km/h (2 Bft) 99,16 %
02.11.2018 13:00 12,5 C 19,5 C 10,8 C 70 % 1021,0 hPa 0,0 l/m 0,90 h 0,00 h 402 W/m 10,0 km/h (2 Bft) 96,76 %
02.11.2018 14:00 11,3 C 14,3 C 10,0 C 66 % 1021,4 hPa 0,0 l/m 0,53 h 0,00 h 216 W/m 8,3 km/h (2 Bft) 99,77 %
02.11.2018 15:00 11,0 C 13,0 C 9,4 C 68 % 1022,3 hPa 0,0 l/m 0,70 h 0,00 h 170 W/m 7,7 km/h (2 Bft) 97,03 %
02.11.2018 16:00 10,2 C 8,8 C 8,0 C 72 % 1023,2 hPa 0,0 l/m 0,00 h 0,00 h 21 W/m 5,3 km/h (1 Bft) 97,66 %
02.11.2018 17:00 8,6 C 6,2 C 5,4 C 77 % 1023,6 hPa 0,0 l/m 0,00 h 0,00 h 4 W/m 0,3 km/h (0 Bft) 98,82 %
02.11.2018 18:00 6,8 C 4,6 C 4,1 C 82 % 1024,6 hPa 0,0 l/m 0,00 h 0,00 h 0 W/m 0,0 km/h (0 Bft) 98,17 %
02.11.2018 19:00 5,4 C 3,4 C 3,0 C 85 % 1025,5 hPa 0,0 l/m 0,00 h 0,00 h 0 W/m 0,0 km/h (0 Bft) 95,62 %
02.11.2018 20:00 4,2 C 2,4 C 2,3 C 86 % 1026,3 hPa 0,0 l/m 0,00 h 0,00 h 0 W/m 0,0 km/h (0 Bft) 96,19 %
02.11.2018 21:00 3,4 C 2,3 C 1,8 C 88 % 1026,8 hPa 0,0 l/m 0,00 h 0,00 h 0 W/m 0,0 km/h (0 Bft) 97,18 %
02.11.2018 22:00 2,8 C 1,7 C 1,7 C 90 % 1027,1 hPa 0,0 l/m 0,00 h 0,00 h 0 W/m 0,0 km/h (0 Bft) 97,45 %
02.11.2018 23:00 2,4 C 1,1 C 1,0 C 91 % 1027,4 hPa 0,0 l/m 0,00 h 0,00 h 0 W/m 0,0 km/h (0 Bft) 98,32 %
03.11.2018 00:00 1,8 C 0,6 C 0,6 C 92 % 1027,5 hPa 0,0 l/m 0,00 h 0,00 h 0 W/m 0,0 km/h (0 Bft) 98,59 %
03.11.2018 01:00 1,4 C 0,3 C 0,4 C 93 % 1027,4 hPa 0,0 l/m 0,00 h 0,00 h 0 W/m 0,0 km/h (0 Bft) 96,42 %
03.11.2018 02:00 1,2 C 0,5 C 0,6 C 93 % 1027,4 hPa 0,0 l/m 0,00 h 0,00 h 0 W/m 0,5 km/h (0 Bft) 96,49 %
03.11.2018 03:00 1,2 C 0,2 C 0,1 C 94 % 1027,4 hPa 0,0 l/m 0,00 h 0,00 h 0 W/m 0,0 km/h (0 Bft) 98,05 %
03.11.2018 04:00 1,4 C 1,0 C 0,6 C 95 % 1027,5 hPa 0,0 l/m 0,00 h 0,00 h 0 W/m 4,5 km/h (1 Bft) 99,24 %
03.11.2018 05:00 1,4 C 1,0 C 0,6 C 95 % 1027,6 hPa 0,0 l/m 0,00 h 0,00 h 0 W/m 0,8 km/h (0 Bft) 94,53 %
03.11.2018 06:00 1,3 C 0,7 C 0,3 C 96 % 1027,7 hPa 0,0 l/m 0,00 h 0,00 h 0 W/m 0,6 km/h (0 Bft) 97,85 %
03.11.2018 07:00 1,2 C 0,8 C 0,5 C 96 % 1028,1 hPa 0,0 l/m 0,00 h 0,00 h 13 W/m 3,8 km/h (1 Bft) 97,98 %
03.11.2018 08:00 1,5 C 1,8 C 1,2 C 96 % 1028,2 hPa 0,0 l/m 0,00 h 0,00 h 44 W/m 5,2 km/h (1 Bft) 96,78 %
03.11.2018 09:00 2,5 C 4,6 C 2,3 C 97 % 1028,0 hPa 0,0 l/m 0,33 h 0,00 h 136 W/m 0,7 km/h (0 Bft) 97,43 %
03.11.2018 10:00 4,4 C 7,7 C 4,0 C 97 % 1027,9 hPa 0,0 l/m 0,80 h 0,00 h 222 W/m 3,2 km/h (1 Bft) 97,95 %
03.11.2018 11:00 6,2 C 10,9 C 5,6 C 93 % 1027,5 hPa 0,0 l/m 1,00 h 0,00 h 324 W/m 8,6 km/h (2 Bft) 97,55 %
03.11.2018 12:00 8,0 C 12,8 C 8,0 C 84 % 1027,1 hPa 0,0 l/m 1,00 h 0,00 h 335 W/m 8,2 km/h (2 Bft) 95,24 %
03.11.2018 13:00 9,0 C 14,5 C 8,0 C 80 % 1026,5 hPa 0,0 l/m 1,00 h 0,00 h 355 W/m 8,3 km/h (2 Bft) 98,74 %
03.11.2018 14:00 9,4 C 15,2 C 8,0 C 78 % 1025,7 hPa 0,0 l/m 1,00 h 0,00 h 324 W/m 8,3 km/h (2 Bft) 98,29 %
03.11.2018 15:00 9,2 C 10,1 C 7,2 C 76 % 1025,0 hPa 0,0 l/m 0,67 h 0,00 h 151 W/m 7,4 km/h (2 Bft) 96,99 %
03.11.2018 16:00 8,6 C 6,9 C 5,7 C 78 % 1024,2 hPa 0,0 l/m 0,00 h 0,00 h 20 W/m 1,1 km/h (1 Bft) 99,28 %
03.11.2018 17:00 6,5 C 3,8 C 3,4 C 83 % 1023,9 hPa 0,0 l/m 0,00 h 0,00 h 3 W/m 0,0 km/h (0 Bft) 96,11 %
03.11.2018 18:00 4,5 C 2,6 C 2,2 C 87 % 1023,5 hPa 0,0 l/m 0,00 h 0,00 h 0 W/m 0,0 km/h (0 Bft) 95,12 %
03.11.2018 19:00 3,4 C 1,4 C 1,3 C 88 % 1023,0 hPa 0,0 l/m 0,00 h 0,00 h 0 W/m 0,0 km/h (0 Bft) 97,87 %
03.11.2018 20:00 2,3 C 0,4 C 0,4 C 89 % 1022,7 hPa 0,0 l/m 0,00 h 0,00 h 0 W/m 0,0 km/h (0 Bft) 98,29 %
03.11.2018 21:00 1,4 C -0,4 C -0,1 C 90 % 1022,3 hPa 0,0 l/m 0,00 h 0,00 h 0 W/m 0,0 km/h (0 Bft) 98,85 %
03.11.2018 22:00 0,9 C -0,5 C -0,3 C 91 % 1021,7 hPa 0,0 l/m 0,00 h 0,00 h 0 W/m 0,1 km/h (0 Bft) 97,51 %
03.11.2018 23:00 1,6 C 1,1 C 0,9 C 94 % 1020,9 hPa 0,0 l/m 0,00 h 0,00 h 0 W/m 2,3 km/h (1 Bft) 95,19 %
04.11.2018 00:00 2,0 C 1,7 C 1,1 C 95 % 1020,0 hPa 0,0 l/m 0,00 h 0,00 h 0 W/m 3,8 km/h (1 Bft) 98,89 %
04.11.2018 01:00 2,0 C 1,5 C 1,1 C 94 % 1019,2 hPa 0,0 l/m 0,00 h 0,00 h 0 W/m 1,7 km/h (1 Bft) 96,07 %
04.11.2018 02:00 1,9 C 1,4 C 1,0 C 94 % 1018,6 hPa 0,0 l/m 0,00 h 0,00 h 0 W/m 1,7 km/h (1 Bft) 98,97 %
04.11.2018 03:00 2,2 C 1,9 C 1,3 C 95 % 1017,8 hPa 0,0 l/m 0,00 h 0,00 h 0 W/m 1,7 km/h (1 Bft) 96,72 %
04.11.2018 04:00 2,6 C 2,5 C 1,9 C 95 % 1017,2 hPa 0,0 l/m 0,00 h 0,00 h 0 W/m 2,6 km/h (1 Bft) 96,42 %
04.11.2018 05:00 3,1 C 2,8 C 2,2 C 96 % 1017,0 hPa 0,0 l/m 0,00 h 0,00 h 0 W/m 5,2 km/h (1 Bft) 98,27 %
04.11.2018 06:00 3,6 C 3,5 C 2,8 C 96 % 1016,5 hPa 0,0 l/m 0,00 h 0,00 h 0 W/m 4,4 km/h (1 Bft) 97,04 %
04.11.2018 07:00 4,0 C 3,9 C 3,3 C 96 % 1016,4 hPa 0,0 l/m 0,00 h 0,00 h 7 W/m 1,6 km/h (1 Bft) 95,57 %
04.11.2018 08:00 5,0 C 5,5 C 4,7 C 96 % 1016,3 hPa 0,0 l/m 0,00 h 0,00 h 30 W/m 6,9 km/h (2 Bft) 98,61 %
04.11.2018 09:00 6,5 C 7,7 C 6,5 C 96 % 1015,8 hPa 0,0 l/m 0,03 h 0,00 h 89 W/m 7,7 km/h (2 Bft) 92,23 %
04.11.2018 10:00 8,2 C 8,6 C 7,9 C 93 % 1015,7 hPa 0,0 l/m 0,00 h 0,00 h 104 W/m 12,0 km/h (2 Bft) 93,22 %
04.11.2018 11:00 9,5 C 10,0 C 9,1 C 88 % 1015,2 hPa 0,0 l/m 0,00 h 0,00 h 146 W/m 13,9 km/h (3 Bft) 97,54 %
04.11.2018 12:00 10,8 C 13,0 C 10,6 C 86 % 1014,3 hPa 0,0 l/m 0,97 h 0,00 h 269 W/m 16,9 km/h (3 Bft) 96,64 %
04.11.2018 13:00 12,3 C 14,5 C 11,5 C 81 % 1013,4 hPa 0,0 l/m 1,00 h 0,00 h 274 W/m 13,1 km/h (3 Bft) 96,95 %
04.11.2018 14:00 12,8 C 15,2 C 11,3 C 80 % 1012,6 hPa 0,0 l/m 1,00 h 0,00 h 264 W/m 13,4 km/h (3 Bft) 98,08 %
04.11.2018 15:00 12,4 C 12,4 C 10,7 C 80 % 1012,0 hPa 0,0 l/m 0,60 h 0,00 h 139 W/m 10,8 km/h (2 Bft) 97,60 %
04.11.2018 16:00 11,8 C 11,2 C 10,3 C 82 % 1011,8 hPa 0,0 l/m 0,63 h 0,00 h 35 W/m 13,8 km/h (3 Bft) 97,18 %
04.11.2018 17:00 11,0 C 9,8 C 8,9 C 84 % 1011,5 hPa 0,0 l/m 0,00 h 0,00 h 0 W/m 8,5 km/h (2 Bft) 97,71 %
04.11.2018 18:00 9,7 C 7,7 C 7,2 C 87 % 1011,4 hPa 0,0 l/m 0,00 h 0,00 h 0 W/m 2,6 km/h (1 Bft) 98,18 %
04.11.2018 19:00 8,8 C 7,9 C 6,8 C 91 % 1011,2 hPa 0,0 l/m 0,00 h 0,00 h 0 W/m 3,1 km/h (1 Bft) 97,01 %
04.11.2018 20:00 8,3 C 6,8 C 6,1 C 92 % 1010,9 hPa 0,0 l/m 0,00 h 0,00 h 0 W/m 1,4 km/h (1 Bft) 95,95 %
04.11.2018 21:00 7,5 C 5,9 C 5,3 C 92 % 1010,7 hPa 0,0 l/m 0,00 h 0,00 h 0 W/m 0,6 km/h (0 Bft) 99,43 %
04.11.2018 22:00 6,7 C 5,3 C 4,8 C 93 % 1010,4 hPa 0,0 l/m 0,00 h 0,00 h 0 W/m 0,5 km/h (0 Bft) 98,43 %
04.11.2018 23:00 6,3 C 5,2 C 4,7 C 94 % 1009,7 hPa 0,0 l/m 0,00 h 0,00 h 0 W/m 0,3 km/h (0 Bft) 95,27 %
Min-Datum _ 03.11.18 03.11.18 03.11.18 02.11.18 30.10.18 - - - - 30.10.18 29.10.18
_ Min-Zeit 22:24 22:16 21:44 14:16 04:46 - - - - 03:08 00:02
Minimum _ 0,8 C -1,1 C -0,6 C 63 % 983,3 hPa - - - - 0,0 km/h (0 Bft) 12,50 %
Max-Datum _ 02.11.18 02.11.18 02.11.18 30.10.18 03.11.18 30.10.18 02.11.18 30.10.18 02.11.18 30.10.18 29.10.18
_ Max-Zeit 12:28 12:26 12:18 08:02 08:04 03:08 10:38 00:38 11:58 18:18 00:00
Maximum _ 13,2 C 22,2 C 17,8 C 98 % 1028,4 hPa 5,2 l/m 0,07 h 0,07 h 557 W/m 45,1 km/h
SW (6 Bft)
100,00 %
Durchschnitt _ 6,8 C 6,5 C 5,6 C 89 % 1009,8 hPa #19,6 l/m #15:26 h #17:20 h 104 W/m 9,5 km/h (2 Bft) 97,18 %
© 2018 W. Hausmann